Time;durP1;ratioP1;P1;durP2;ratioP2;P2;SDS_P1;SDS_P2;PMS_P1;PMS_P2;Temp;Humidity;BMP_temperature;BMP_pressure;BME280_temperature;BME280_humidity;BME280_pressure;Samples;Min_cycle;Max_cycle;Signal;HPM_P1;HPM_P2
2022/04/18 00:02:21;;;;;;;4.47;3.60;;;;;;;21.48;34.03;102242.75;5071239;28;20540;-69
2022/04/18 00:04:47;;;;;;;5.00;3.60;;;;;;;21.51;33.84;102249.56;5062482;28;20063;-69
2022/04/18 00:07:13;;;;;;;4.45;3.67;;;;;;;21.46;33.76;102251.84;5071194;28;20069;-69
2022/04/18 00:09:38;;;;;;;4.90;3.50;;;;;;;21.40;34.06;102229.47;5065460;28;20048;-69
2022/04/18 00:12:05;;;;;;;6.20;4.10;;;;;;;21.47;34.02;102237.63;5067998;28;20145;-69
2022/04/18 00:14:30;;;;;;;4.15;3.70;;;;;;;21.45;34.13;102235.13;5071547;28;20039;-69
2022/04/18 00:16:56;;;;;;;5.75;3.95;;;;;;;21.44;33.82;102236.13;5055529;28;20242;-69
2022/04/18 00:19:22;;;;;;;5.45;3.85;;;;;;;21.35;33.77;102221.13;5073667;28;20044;-69
2022/04/18 00:21:49;;;;;;;6.57;3.78;;;;;;;21.42;33.92;102233.63;5078429;28;20098;-69
2022/04/18 00:24:17;;;;;;;6.80;4.22;;;;;;;21.32;33.97;102216.97;5067652;28;20056;-69
2022/04/18 00:26:43;;;;;;;5.70;4.00;;;;;;;21.42;33.88;102230.13;5068599;28;20266;-69
2022/04/18 00:29:10;;;;;;;5.00;3.97;;;;;;;21.29;34.12;102212.00;5078091;28;20043;-69
2022/04/18 00:31:35;;;;;;;5.35;3.63;;;;;;;21.40;33.99;102232.94;5054421;28;20467;-69
2022/04/18 00:34:01;;;;;;;5.10;4.10;;;;;;;21.39;34.04;102227.81;5068719;28;20078;-69
2022/04/18 00:36:27;;;;;;;5.72;4.13;;;;;;;21.39;34.04;102228.63;5067859;28;20041;-69
2022/04/18 00:38:53;;;;;;;4.85;3.90;;;;;;;21.38;34.10;102234.09;5067257;28;20040;-68
2022/04/18 00:41:18;;;;;;;5.03;3.97;;;;;;;21.37;33.91;102221.84;5068863;28;20049;-69
2022/04/18 00:43:46;;;;;;;5.30;4.10;;;;;;;21.36;34.06;102223.66;5057484;28;20540;-69
2022/04/18 00:46:13;;;;;;;6.03;4.22;;;;;;;21.37;34.07;102227.13;5066667;28;20140;-69
2022/04/18 00:48:39;;;;;;;5.22;3.97;;;;;;;21.35;34.06;102227.25;5052117;28;20153;-69
2022/04/18 00:51:09;;;;;;;5.60;3.90;;;;;;;21.35;34.07;102221.13;5066591;28;20111;-69
2022/04/18 00:53:36;;;;;;;6.32;4.40;;;;;;;21.33;34.23;102220.47;5073455;28;20032;-69
2022/04/18 00:56:04;;;;;;;6.05;4.70;;;;;;;21.34;34.11;102220.31;5067317;28;20132;-69
2022/04/18 00:58:30;;;;;;;6.10;4.68;;;;;;;21.30;33.81;102210.19;5051129;28;20043;-69
2022/04/18 01:00:56;;;;;;;5.90;4.18;;;;;;;21.31;34.01;102217.13;5054517;28;20086;-69
2022/04/18 01:03:22;;;;;;;7.15;4.38;;;;;;;21.33;34.20;102209.88;5055916;28;20044;-69
2022/04/18 01:05:48;;;;;;;5.30;4.50;;;;;;;21.32;33.86;102208.19;5067798;28;20078;-69
2022/04/18 01:08:14;;;;;;;5.47;4.43;;;;;;;21.33;33.82;102201.91;5062263;28;20653;-69
2022/04/18 01:10:40;;;;;;;6.07;4.75;;;;;;;21.30;34.22;102197.75;5034562;28;20478;-69
2022/04/18 01:13:07;;;;;;;5.70;4.28;;;;;;;21.26;34.16;102187.63;5054478;28;20187;-68
2022/04/18 01:15:58;;;;;;;6.32;4.53;;;;;;;21.17;34.09;102170.00;5064770;28;20036;-69
2022/04/18 01:19:02;;;;;;;5.93;4.63;;;;;;;21.30;33.88;102188.97;5045655;28;20056;-69
2022/04/18 01:21:50;;;;;;;5.25;4.03;;;;;;;21.29;33.93;102195.28;5043060;28;20032;-69
2022/04/18 01:30:08;;;;;;;6.57;4.22;;;;;;;21.22;34.00;102179.16;5054328;28;20040;-69
2022/04/18 01:32:33;;;;;;;5.65;4.40;;;;;;;21.13;34.03;102170.31;5066857;28;20040;-69
2022/04/18 01:34:59;;;;;;;6.00;4.53;;;;;;;21.22;33.92;102184.44;5065281;28;20602;-69
2022/04/18 01:37:28;;;;;;;5.93;4.28;;;;;;;21.24;34.14;102186.94;5055597;28;20047;-69
2022/04/18 01:39:54;;;;;;;7.10;4.97;;;;;;;21.20;33.93;102183.78;5056607;28;20074;-69
2022/04/18 01:42:20;;;;;;;7.30;4.68;;;;;;;21.20;34.18;102185.59;5055852;28;20071;-69
2022/04/18 01:44:46;;;;;;;6.30;4.65;;;;;;;21.17;34.02;102178.75;5067739;28;20040;-69
2022/04/18 01:47:12;;;;;;;4.70;3.97;;;;;;;21.19;34.00;102168.03;5060068;28;20040;-69
2022/04/18 01:49:38;;;;;;;6.15;5.00;;;;;;;21.18;33.92;102169.81;5054053;28;20423;-69
2022/04/18 01:52:03;;;;;;;5.07;4.30;;;;;;;21.17;33.98;102167.34;5054178;28;20073;-69
2022/04/18 01:54:29;;;;;;;6.53;4.47;;;;;;;21.17;33.92;102164.69;5052005;28;20028;-69
2022/04/18 01:56:54;;;;;;;5.78;4.78;;;;;;;21.19;34.01;102168.03;5075525;28;20035;-69
2022/04/18 01:59:20;;;;;;;6.68;4.93;;;;;;;21.09;33.94;102160.19;5051078;28;20036;-69
2022/04/18 02:01:46;;;;;;;6.15;4.72;;;;;;;21.13;34.22;102165.00;5052796;28;20036;-69
2022/04/18 02:04:11;;;;;;;6.60;4.85;;;;;;;21.12;34.15;102160.69;5057798;28;20040;-68
2022/04/18 02:06:37;;;;;;;6.25;4.80;;;;;;;21.14;34.14;102163.19;5056582;28;20044;-69
2022/04/18 02:09:03;;;;;;;4.82;4.30;;;;;;;21.12;33.98;102158.06;5069380;28;20607;-69
2022/04/18 02:11:29;;;;;;;6.35;4.70;;;;;;;21.10;34.07;102160.03;5054509;28;20147;-68
2022/04/18 02:13:57;;;;;;;6.43;4.60;;;;;;;21.10;34.13;102159.19;5049734;28;20040;-69
2022/04/18 02:16:23;;;;;;;6.18;5.15;;;;;;;21.11;34.09;102163.50;5053884;28;20825;-69
2022/04/18 02:18:52;;;;;;;5.63;4.38;;;;;;;21.11;34.26;102160.84;5064979;28;20513;-69
2022/04/18 02:21:19;;;;;;;5.03;4.40;;;;;;;21.09;34.07;102152.25;5048960;28;20044;-69
2022/04/18 02:23:45;;;;;;;7.07;4.60;;;;;;;21.08;34.17;102153.22;5053195;28;20040;-69
2022/04/18 02:26:10;;;;;;;5.50;4.40;;;;;;;21.07;34.23;102148.91;5070724;28;20089;-69
2022/04/18 02:28:37;;;;;;;6.50;5.13;;;;;;;21.05;34.18;102143.78;5058988;28;20097;-69
2022/04/18 02:31:08;;;;;;;6.13;4.93;;;;;;;21.05;34.19;102150.91;5057524;28;20032;-69
2022/04/18 02:33:34;;;;;;;5.80;4.55;;;;;;;21.07;34.10;102141.81;5058467;28;20140;-69
2022/04/18 02:36:01;;;;;;;6.65;4.60;;;;;;;20.99;34.11;102136.44;5057919;28;20144;-69
2022/04/18 02:38:27;;;;;;;6.82;4.68;;;;;;;20.95;34.13;102126.31;5056449;28;20043;-69
2022/04/18 02:40:53;;;;;;;7.18;4.72;;;;;;;20.94;34.16;102124.66;5056536;28;20033;-69
2022/04/18 02:43:19;;;;;;;6.60;4.93;;;;;;;21.00;34.26;102130.16;5058965;28;20736;-69
2022/04/18 02:45:50;;;;;;;7.35;4.68;;;;;;;21.01;34.40;102134.50;5050818;28;20036;-69
2022/04/18 02:48:32;;;;;;;5.43;4.80;;;;;;;21.02;34.35;102135.31;5074075;28;20118;-69
2022/04/18 02:51:00;;;;;;;7.38;5.43;;;;;;;21.03;34.04;102131.69;5058903;28;20489;-69
2022/04/18 02:53:29;;;;;;;7.15;5.20;;;;;;;20.98;34.28;102134.78;5058383;28;20046;-69
2022/04/18 02:55:59;;;;;;;5.13;4.60;;;;;;;20.99;34.19;102128.50;5057577;28;20046;-69
2022/04/18 02:58:25;;;;;;;6.20;4.55;;;;;;;20.99;34.14;102128.50;5060649;28;20493;-69
2022/04/18 03:00:51;;;;;;;5.78;4.55;;;;;;;20.97;34.37;102127.81;5064911;28;20051;-69
2022/04/18 03:03:16;;;;;;;6.82;4.88;;;;;;;20.97;34.19;102125.19;5071276;28;20044;-69
2022/04/18 03:05:43;;;;;;;6.82;5.00;;;;;;;20.98;34.20;102121.53;5058361;28;20400;-69
2022/04/18 03:08:10;;;;;;;7.60;5.15;;;;;;;20.97;34.12;102122.53;5038821;28;20068;-69
2022/04/18 03:13:26;;;;;;;6.60;4.60;;;;;;;20.94;34.21;102114.91;5053553;28;20040;-69
2022/04/18 03:15:52;;;;;;;6.05;4.70;;;;;;;20.91;34.06;102112.56;5056264;28;20106;-69
2022/04/18 03:18:18;;;;;;;6.57;4.93;;;;;;;20.94;34.22;102114.06;5056615;28;20033;-69
2022/04/18 03:20:44;;;;;;;6.15;4.88;;;;;;;20.94;34.17;102106.13;5069440;28;20472;-68
2022/04/18 03:23:11;;;;;;;6.72;4.80;;;;;;;20.93;34.07;102107.94;5055721;28;20028;-69
2022/04/18 03:25:59;;;;;;;6.70;4.80;;;;;;;20.92;34.33;102114.22;5074903;28;20516;-69
2022/04/18 03:28:32;;;;;;;6.35;4.63;;;;;;;20.89;34.41;102106.59;5051808;28;20437;-69
2022/04/18 03:30:58;;;;;;;6.13;4.60;;;;;;;20.83;34.23;102106.41;5065443;28;20040;-69
2022/04/18 03:33:23;;;;;;;5.47;4.50;;;;;;;20.87;34.47;102105.09;5055030;28;20061;-69
2022/04/18 03:41:17;;;;;;;5.82;4.53;;;;;;;20.77;34.37;102100.72;5056910;28;20159;-68
2022/04/18 03:43:43;;;;;;;5.38;4.65;;;;;;;20.77;34.30;102107.84;5049664;28;20132;-71
2022/04/18 03:46:09;;;;;;;4.85;4.35;;;;;;;20.77;34.36;102091.94;5051421;28;20063;-69
2022/04/18 03:48:34;;;;;;;6.20;4.75;;;;;;;20.77;34.47;102099.91;5058683;28;21307;-68
2022/04/18 03:51:00;;;;;;;6.07;4.63;;;;;;;20.75;34.31;102099.22;5061908;28;20039;-68
2022/04/18 03:53:27;;;;;;;6.38;4.57;;;;;;;20.78;34.22;102101.56;5051915;28;20477;-68
2022/04/18 03:55:53;;;;;;;6.70;4.78;;;;;;;20.75;34.41;102099.22;5053515;28;20060;-68
2022/04/18 03:58:39;;;;;;;6.03;4.75;;;;;;;20.75;34.55;102104.50;5069787;28;20048;-68
2022/04/18 04:01:05;;;;;;;5.85;4.65;;;;;;;20.74;34.48;102100.22;5067356;28;20070;-68
2022/04/18 04:03:31;;;;;;;6.50;4.45;;;;;;;20.72;34.42;102095.06;5056770;28;20402;-69
2022/04/18 04:05:57;;;;;;;6.57;5.10;;;;;;;20.73;34.42;102101.19;5056275;28;20071;-68
2022/04/18 04:08:24;;;;;;;6.28;5.07;;;;;;;20.73;34.47;102095.91;5044640;28;20036;-68
2022/04/18 04:10:53;;;;;;;;;;;;;;;20.74;34.49;102094.91;5053114;28;20040;-68
2022/04/18 04:13:20;;;;;;;8.52;5.05;;;;;;;20.72;34.21;102108.31;5050678;28;20011;-68
2022/04/18 04:15:53;;;;;;;7.28;4.72;;;;;;;20.74;34.35;102103.69;5048939;28;20034;-68
2022/04/18 04:18:24;;;;;;;7.72;4.95;;;;;;;20.62;34.40;102086.38;5056361;28;20524;-69
2022/04/18 04:20:51;;;;;;;6.07;4.75;;;;;;;20.66;34.38;102093.06;5054439;28;20037;-68
2022/04/18 04:23:18;;;;;;;5.97;4.80;;;;;;;20.67;34.41;102094.72;5058911;28;20067;-69
2022/04/18 04:25:52;;;;;;;6.07;4.68;;;;;;;20.69;34.52;102097.19;5070284;28;20141;-69
2022/04/18 04:28:24;;;;;;;7.70;5.13;;;;;;;20.68;34.43;102103.47;5050236;28;20039;-69
2022/04/18 04:30:50;;;;;;;6.35;4.90;;;;;;;20.69;34.37;102095.38;5052526;28;20036;-68
2022/04/18 04:33:16;;;;;;;6.38;5.05;;;;;;;20.68;34.42;102100.84;5055277;28;20627;-69
2022/04/18 04:35:44;;;;;;;6.68;4.88;;;;;;;20.67;34.40;102099.19;5066070;28;20051;-69
2022/04/18 04:38:12;;;;;;;6.72;4.93;;;;;;;20.66;34.51;102093.06;5068764;28;20040;-69
2022/04/18 04:40:53;;;;;;;6.15;5.00;;;;;;;20.64;34.61;102091.53;5056195;28;20042;-69
2022/04/18 04:43:32;;;;;;;6.53;4.53;;;;;;;20.62;34.37;102089.03;5049491;28;20044;-69
2022/04/18 04:46:01;;;;;;;8.43;5.05;;;;;;;20.62;34.57;102086.38;5048644;28;20033;-69
2022/04/18 04:48:29;;;;;;;6.30;5.10;;;;;;;20.61;34.56;102090.00;5048780;28;20032;-69
2022/04/18 04:51:00;;;;;;;6.90;5.07;;;;;;;20.59;34.67;102086.69;5057070;28;20063;-69
2022/04/18 04:53:26;;;;;;;7.88;5.47;;;;;;;20.55;34.74;102080.06;5056027;28;20561;-69
2022/04/18 04:55:53;;;;;;;6.90;4.82;;;;;;;20.56;34.73;102086.19;5065391;28;20033;-69
2022/04/18 04:58:19;;;;;;;6.32;4.90;;;;;;;20.52;34.75;102083.00;5065842;28;20525;-69
2022/04/18 05:00:50;;;;;;;5.75;4.63;;;;;;;20.54;34.79;102093.44;5057345;28;20055;-69
2022/04/18 05:03:39;;;;;;;6.22;4.65;;;;;;;20.48;34.87;102085.16;5063592;28;20044;-69
2022/04/18 05:06:07;;;;;;;6.80;5.28;;;;;;;20.47;34.84;102087.94;5062514;28;20669;-69
2022/04/18 05:08:37;;;;;;;6.53;4.93;;;;;;;20.47;34.83;102086.13;5056360;28;20174;-68
2022/04/18 05:11:04;;;;;;;5.75;4.55;;;;;;;20.48;34.84;102089.59;5062733;28;20032;-69
2022/04/18 05:13:39;;;;;;;7.38;5.53;;;;;;;20.44;34.83;102089.06;5052349;28;20051;-69
2022/04/18 05:16:05;;;;;;;6.53;4.90;;;;;;;20.47;34.95;102088.78;5070746;28;20041;-69
2022/04/18 05:18:41;;;;;;;7.97;5.32;;;;;;;20.37;34.86;102073.94;5060910;28;20506;-69
2022/04/18 05:21:09;;;;;;;7.95;4.72;;;;;;;20.47;34.91;102086.13;5053217;28;20505;-69
2022/04/18 05:23:35;;;;;;;5.90;4.65;;;;;;;20.48;34.96;102089.59;5060992;28;20248;-69
2022/04/18 05:26:01;;;;;;;7.05;4.82;;;;;;;20.46;34.84;102086.25;5051106;28;20833;-69
2022/04/18 05:28:26;;;;;;;7.10;4.88;;;;;;;20.50;34.86;102087.63;5056396;28;20043;-69
2022/04/18 05:30:58;;;;;;;6.07;4.95;;;;;;;20.74;34.62;102082.50;5055078;28;20042;-68
2022/04/18 05:33:24;;;;;;;5.57;4.78;;;;;;;20.86;34.47;102071.66;5065384;28;20047;-68
2022/04/18 05:36:10;;;;;;;5.95;4.63;;;;;;;21.67;33.48;102086.13;5057777;28;20043;-68
2022/04/18 05:38:36;;;;;;;5.97;4.60;;;;;;;22.28;32.60;102084.94;5060688;28;20467;-68
2022/04/18 05:41:10;;;;;;;6.43;4.45;;;;;;;22.79;31.66;102085.53;5055406;28;20048;-68
2022/04/18 05:43:37;;;;;;;6.43;4.50;;;;;;;22.85;31.84;102084.06;5054196;28;20064;-68
2022/04/18 05:46:02;;;;;;;5.43;4.40;;;;;;;22.79;31.85;102087.34;5056551;28;20040;-68
2022/04/18 05:48:29;;;;;;;5.53;4.38;;;;;;;22.68;32.34;102103.66;5074787;28;20044;-68
2022/04/18 05:50:57;;;;;;;5.80;4.60;;;;;;;22.55;32.36;102090.88;5061840;28;20527;-68
2022/04/18 05:53:28;;;;;;;5.25;4.22;;;;;;;22.41;32.66;102095.03;5040050;28;20044;-68
2022/04/18 05:56:12;;;;;;;7.13;4.70;;;;;;;22.30;32.58;102095.38;5070143;28;20413;-68
2022/04/18 05:58:45;;;;;;;6.40;4.57;;;;;;;22.16;32.95;102099.50;5049822;28;20028;-68
2022/04/18 06:01:29;;;;;;;7.40;5.10;;;;;;;22.03;33.40;102097.31;5067409;28;20455;-67
2022/04/18 06:03:56;;;;;;;5.05;4.15;;;;;;;22.00;33.36;102102.94;5057898;28;20039;-68
2022/04/18 06:06:23;;;;;;;7.30;4.78;;;;;;;21.87;33.39;102099.09;5069975;28;20376;-68
2022/04/18 06:08:48;;;;;;;6.20;4.72;;;;;;;21.81;33.50;102105.06;5055785;28;20141;-68
2022/04/18 06:11:20;;;;;;;7.10;4.88;;;;;;;21.90;33.55;102104.94;5058375;28;20046;-68
2022/04/18 06:14:08;;;;;;;4.60;4.15;;;;;;;22.19;33.07;102099.19;5071210;28;20140;-68
2022/04/18 06:16:37;;;;;;;5.57;4.28;;;;;;;22.65;32.45;102098.69;5055586;28;20759;-68
2022/04/18 06:19:03;;;;;;;6.25;4.70;;;;;;;22.77;32.20;102099.97;5055439;28;20033;-68
2022/04/18 06:21:29;;;;;;;5.53;4.50;;;;;;;22.75;32.28;102100.16;5052160;28;20062;-68
2022/04/18 06:23:55;;;;;;;5.72;4.20;;;;;;;22.67;32.57;102102.00;5067279;28;20059;-68
2022/04/18 06:26:32;;;;;;;6.18;4.32;;;;;;;22.53;32.82;102103.50;5059305;28;20370;-68
2022/04/18 06:28:59;;;;;;;5.95;4.65;;;;;;;22.44;32.74;102104.47;5066926;28;20379;-66
2022/04/18 06:31:25;;;;;;;6.03;4.40;;;;;;;22.33;33.17;102110.13;5059445;28;20238;-67
2022/04/18 06:34:00;;;;;;;6.03;4.70;;;;;;;22.19;33.29;102098.34;5048691;28;20074;-67
2022/04/18 06:36:26;;;;;;;6.88;4.78;;;;;;;22.14;33.34;102108.63;5053096;28;20597;-67
2022/04/18 06:39:12;;;;;;;6.03;4.25;;;;;;;22.05;33.74;102101.66;5060403;28;20040;-66
2022/04/18 06:41:39;;;;;;;5.82;4.50;;;;;;;22.05;33.58;102112.25;5052565;28;20490;-66
2022/04/18 06:44:05;;;;;;;5.72;4.32;;;;;;;22.01;33.78;102101.13;5059063;28;20060;-66
2022/04/18 06:46:42;;;;;;;5.97;4.40;;;;;;;22.00;33.77;102115.38;5048668;28;20090;-66
2022/04/18 06:49:12;;;;;;;6.00;4.38;;;;;;;21.97;33.52;102107.75;5056895;28;20656;-66
2022/04/18 06:51:58;;;;;;;5.88;4.72;;;;;;;21.90;33.89;102102.28;5070577;28;20050;-66
2022/04/18 06:54:52;;;;;;;5.28;4.28;;;;;;;21.87;33.78;102104.41;5073661;28;20079;-66
2022/04/18 06:57:19;;;;;;;5.57;4.47;;;;;;;21.87;34.15;102107.03;5068826;28;20437;-66
2022/04/18 07:00:00;;;;;;;5.97;4.55;;;;;;;21.83;34.21;102101.25;5060853;28;20145;-67
2022/04/18 07:02:28;;;;;;;5.43;4.32;;;;;;;21.83;34.05;102098.59;5059990;28;20233;-66
2022/04/18 07:04:54;;;;;;;5.57;4.40;;;;;;;21.81;34.41;102103.22;5066460;28;20042;-66
2022/04/18 07:07:20;;;;;;;5.97;4.65;;;;;;;21.80;34.30;102098.09;5060811;28;20044;-66
2022/04/18 07:09:47;;;;;;;6.25;4.40;;;;;;;21.83;34.10;102092.47;5057412;28;20056;-66
2022/04/18 07:12:19;;;;;;;6.90;4.25;;;;;;;21.76;34.18;102089.63;5061803;28;20864;-66
2022/04/18 07:14:44;;;;;;;6.90;4.63;;;;;;;21.78;34.39;102095.59;5057331;28;20032;-68
2022/04/18 07:17:11;;;;;;;5.75;4.32;;;;;;;21.80;34.55;102092.78;5051235;28;20052;-68
2022/04/18 07:19:37;;;;;;;6.35;4.40;;;;;;;21.79;34.26;102093.78;5066521;28;20044;-66
2022/04/18 07:22:10;;;;;;;5.30;3.78;;;;;;;21.75;34.61;102098.59;5054608;28;20036;-67
2022/04/18 07:24:35;;;;;;;5.80;4.03;;;;;;;21.74;34.40;102088.16;5065682;28;20108;-67
2022/04/18 07:27:02;;;;;;;5.93;4.40;;;;;;;21.79;34.38;102096.44;5059714;28;20036;-67
2022/04/18 07:29:30;;;;;;;5.40;4.35;;;;;;;21.79;34.47;102089.31;5062475;28;20044;-67
2022/04/18 07:31:55;;;;;;;4.22;3.63;;;;;;;21.77;34.73;102087.81;5066439;28;20036;-68
2022/04/18 07:34:21;;;;;;;5.65;4.35;;;;;;;21.80;34.84;102092.78;5067451;28;20051;-67
2022/04/18 07:36:48;;;;;;;4.95;4.18;;;;;;;21.80;34.37;102090.13;5071779;28;20126;-68
2022/04/18 07:39:13;;;;;;;4.60;3.70;;;;;;;21.82;34.80;102088.16;5065915;28;20438;-67
2022/04/18 07:41:48;;;;;;;5.20;4.15;;;;;;;21.82;34.85;102088.97;5080183;28;20043;-68
2022/04/18 07:44:14;;;;;;;4.75;3.58;;;;;;;21.86;34.42;102084.19;5058531;28;20517;-68
2022/04/18 07:46:39;;;;;;;5.45;4.22;;;;;;;21.87;34.62;102093.78;5068719;28;20153;-67
2022/04/18 07:49:14;;;;;;;5.10;3.90;;;;;;;21.88;34.47;102098.09;5070657;28;20071;-67
2022/04/18 07:51:45;;;;;;;6.80;4.05;;;;;;;21.79;34.99;102080.53;5056423;28;20545;-67
2022/04/18 07:54:48;;;;;;;6.53;4.70;;;;;;;21.95;34.59;102093.81;4984484;28;20093;-67
2022/04/18 07:57:14;;;;;;;5.13;4.15;;;;;;;22.15;34.35;102089.06;4980385;28;20524;-68
2022/04/18 07:59:50;;;;;;;5.10;4.13;;;;;;;22.50;33.75;102080.78;5030868;28;20071;-67
2022/04/18 08:02:16;;;;;;;5.25;4.20;;;;;;;22.72;33.29;102089.03;5061990;28;20044;-67
2022/04/18 08:05:06;;;;;;;4.53;3.78;;;;;;;22.64;33.44;102076.63;5074529;28;20751;-67
2022/04/18 08:07:43;;;;;;;4.85;3.80;;;;;;;22.70;33.57;102083.91;5071190;28;20075;-67
2022/04/18 08:10:09;;;;;;;5.07;4.05;;;;;;;22.61;33.47;102072.44;5072072;28;20067;-67
2022/04/18 08:12:35;;;;;;;7.30;4.25;;;;;;;22.65;33.54;102078.28;5061541;28;20024;-68
2022/04/18 08:15:33;;;;;;;6.40;4.00;;;;;;;22.63;33.48;102071.47;5062405;28;20075;-67
2022/04/18 08:17:59;;;;;;;6.57;4.03;;;;;;;22.48;33.66;102072.16;5062583;28;20500;-67
2022/04/18 08:20:42;;;;;;;5.47;4.13;;;;;;;22.44;33.84;102073.50;5064698;28;20484;-67
2022/04/18 08:23:08;;;;;;;4.88;3.90;;;;;;;22.38;33.86;102066.16;5089429;28;20036;-65
2022/04/18 08:25:52;;;;;;;6.78;4.13;;;;;;;22.32;34.14;102069.50;5073395;28;20059;-67
2022/04/18 08:28:33;;;;;;;5.78;4.00;;;;;;;22.30;34.08;102069.66;5044055;28;20494;-67
2022/04/18 08:30:59;;;;;;;7.80;4.93;;;;;;;22.23;34.10;102063.34;5060648;28;20559;-67
2022/04/18 08:33:47;;;;;;;4.97;3.60;;;;;;;22.25;34.47;102066.66;5041993;28;20051;-67
2022/04/18 08:36:13;;;;;;;6.78;4.18;;;;;;;22.25;34.13;102057.88;5032044;28;20068;-68
2022/04/18 08:38:38;;;;;;;5.72;4.00;;;;;;;22.29;34.22;102059.22;5055103;28;20805;-65
2022/04/18 08:41:44;;;;;;;5.88;3.90;;;;;;;22.27;34.37;102059.41;4992514;28;20042;-67
2022/04/18 08:44:18;;;;;;;5.72;3.80;;;;;;;22.27;34.23;102067.34;5026441;28;20059;-67
2022/04/18 08:46:45;;;;;;;6.38;3.75;;;;;;;22.25;34.41;102057.88;5048019;28;20038;-68
2022/04/18 08:54:48;;;;;;;5.60;3.95;;;;;;;22.24;34.25;102061.53;5044161;28;20209;-67
2022/04/18 08:57:14;;;;;;;6.82;3.97;;;;;;;22.22;34.19;102056.38;5043053;28;20482;-67
2022/04/18 08:59:39;;;;;;;5.95;4.10;;;;;;;22.21;34.46;102049.44;5044080;28;20036;-67
2022/04/18 09:02:06;;;;;;;7.00;4.07;;;;;;;22.23;34.23;102052.75;5040269;28;20029;-68
2022/04/18 09:04:49;;;;;;;5.43;3.80;;;;;;;22.21;34.31;102048.59;5045084;28;20110;-67
2022/04/18 09:07:15;;;;;;;5.25;3.88;;;;;;;22.23;34.33;102051.91;5044112;28;20044;-67
2022/04/18 09:09:55;;;;;;;5.70;3.97;;;;;;;22.23;34.20;102052.75;5040850;28;20036;-67
2022/04/18 09:12:22;;;;;;;4.32;3.53;;;;;;;22.23;34.47;102052.75;5046666;28;20036;-67
2022/04/18 09:15:12;;;;;;;6.32;4.03;;;;;;;22.21;34.19;102052.06;5021942;28;20049;-65
2022/04/18 09:17:39;;;;;;;5.50;4.15;;;;;;;22.25;34.11;102049.91;5047975;28;20044;-67
2022/04/18 09:20:22;;;;;;;5.38;3.83;;;;;;;22.23;34.54;102043.94;5044633;28;21919;-67
2022/04/18 09:22:51;;;;;;;5.63;3.95;;;;;;;22.23;34.37;102055.41;5045312;28;20517;-67
2022/04/18 09:25:19;;;;;;;5.95;3.78;;;;;;;22.21;34.57;102048.59;5032223;28;20029;-67
2022/04/18 09:27:56;;;;;;;5.40;3.70;;;;;;;22.19;34.37;102045.28;5037652;28;20040;-68
2022/04/18 09:30:30;;;;;;;4.63;3.58;;;;;;;22.16;34.35;102035.00;5041097;28;20042;-67
2022/04/18 09:32:59;;;;;;;4.68;3.67;;;;;;;22.03;34.28;102020.38;5043538;28;20510;-67
2022/04/18 09:35:38;;;;;;;4.85;3.72;;;;;;;22.16;34.35;102035.00;5057390;28;20032;-67
2022/04/18 09:38:08;;;;;;;5.55;3.95;;;;;;;22.11;34.44;102034.69;5037909;28;20033;-67
2022/04/18 09:40:52;;;;;;;5.53;3.97;;;;;;;22.08;34.59;102033.16;5032163;28;20087;-68
2022/04/18 09:43:22;;;;;;;;;;;;;;;22.10;34.65;102033.84;5039147;28;20121;-67
2022/04/18 09:45:50;;;;;;;3.90;3.45;;;;;;;22.09;34.30;102031.38;5037331;28;20286;-67
2022/04/18 09:48:17;;;;;;;5.80;4.10;;;;;;;22.10;34.64;102027.72;5039491;28;20033;-67
2022/04/18 09:51:00;;;;;;;5.07;4.13;;;;;;;22.13;34.35;102036.19;5043509;28;20562;-67
2022/04/18 09:53:46;;;;;;;4.80;3.70;;;;;;;22.13;34.50;102030.03;5046391;28;20129;-67
2022/04/18 09:56:17;;;;;;;4.15;3.55;;;;;;;22.11;34.59;102026.72;5043555;28;20082;-67
2022/04/18 09:58:43;;;;;;;4.75;3.45;;;;;;;22.12;34.69;102028.38;5039196;28;20518;-67
2022/04/18 10:01:10;;;;;;;5.10;3.70;;;;;;;22.14;34.57;102023.75;5041525;28;20041;-67
2022/04/18 10:03:37;;;;;;;4.97;3.80;;;;;;;22.14;34.47;102008.66;5053082;28;20051;-67
2022/04/18 10:06:03;;;;;;;5.60;3.58;;;;;;;22.18;34.45;102019.75;5044085;28;20052;-67
2022/04/18 10:08:29;;;;;;;5.43;3.67;;;;;;;22.22;34.14;102016.59;5045107;28;20059;-67
2022/04/18 10:10:59;;;;;;;5.00;3.55;;;;;;;22.22;34.45;102008.63;5048793;28;20502;-67
2022/04/18 10:13:26;;;;;;;4.75;3.53;;;;;;;22.15;34.37;102007.66;5046442;28;20053;-67
2022/04/18 10:15:53;;;;;;;6.10;3.78;;;;;;;22.20;34.29;102007.16;5037177;28;20471;-67
2022/04/18 10:18:19;;;;;;;4.75;3.53;;;;;;;22.20;34.57;102012.44;5044932;28;20041;-67
2022/04/18 10:21:00;;;;;;;5.60;3.58;;;;;;;22.24;34.26;102017.25;5045786;28;20033;-67
2022/04/18 10:24:13;;;;;;;5.32;3.60;;;;;;;22.25;34.07;102013.59;5040490;28;20029;-67
2022/04/18 10:26:57;;;;;;;5.00;3.50;;;;;;;22.24;34.27;102005.81;5015279;28;20056;-68
2022/04/18 10:29:29;;;;;;;5.88;3.55;;;;;;;22.23;34.11;102007.63;5034882;28;20033;-67
2022/04/18 10:31:56;;;;;;;5.03;3.58;;;;;;;22.25;34.08;102002.16;5038572;28;20025;-67
2022/04/18 10:34:23;;;;;;;4.53;3.75;;;;;;;22.25;34.31;102004.81;5069202;28;20242;-67
2022/04/18 10:36:54;;;;;;;4.78;3.30;;;;;;;22.24;34.04;102003.16;5082950;28;20063;-67
2022/04/18 10:39:21;;;;;;;5.07;3.35;;;;;;;22.22;34.17;102003.31;5081387;28;20626;-68
2022/04/18 10:41:48;;;;;;;4.85;3.70;;;;;;;22.22;34.18;102007.81;5082835;28;20055;-67
2022/04/18 10:44:18;;;;;;;5.68;4.00;;;;;;;22.21;34.39;102003.50;5079747;28;20746;-67
2022/04/18 10:46:56;;;;;;;4.32;3.15;;;;;;;22.20;34.03;101997.34;5087575;28;20032;-67
2022/04/18 10:49:27;;;;;;;4.88;3.28;;;;;;;22.18;34.48;102002.00;5079870;28;20560;-68
2022/04/18 10:51:56;;;;;;;4.05;3.05;;;;;;;22.11;34.30;101987.75;5080306;28;20047;-67
2022/04/18 10:54:25;;;;;;;4.63;3.47;;;;;;;22.19;34.43;101994.88;5082449;28;20070;-67
2022/04/18 10:56:56;;;;;;;5.72;3.63;;;;;;;22.17;34.11;102000.34;5076836;28;20131;-68
2022/04/18 10:59:25;;;;;;;3.80;3.28;;;;;;;22.16;34.14;101993.38;5083146;28;20036;-67
2022/04/18 11:01:51;;;;;;;4.88;3.58;;;;;;;22.14;34.52;101990.06;5074821;28;20029;-67
2022/04/18 11:04:17;;;;;;;4.20;3.05;;;;;;;22.16;34.57;101990.75;5081892;28;20032;-67
2022/04/18 11:06:45;;;;;;;3.95;2.97;;;;;;;22.18;34.49;101986.09;5081406;28;20043;-67
2022/04/18 11:09:16;;;;;;;5.63;3.38;;;;;;;22.14;34.46;101984.78;5079068;28;20031;-67
2022/04/18 11:11:46;;;;;;;4.55;3.38;;;;;;;22.19;34.48;101984.25;5078275;28;20028;-67
2022/04/18 11:14:26;;;;;;;3.92;3.20;;;;;;;22.19;34.29;101989.56;5080488;28;20231;-67
2022/04/18 11:17:02;;;;;;;4.60;3.10;;;;;;;22.19;34.10;101986.91;5084900;28;20039;-68
2022/04/18 11:19:31;;;;;;;4.30;3.13;;;;;;;22.19;34.43;101978.97;5076265;28;20036;-67
2022/04/18 11:22:00;;;;;;;3.78;2.90;;;;;;;22.20;34.38;101978.78;5084537;28;20065;-67
2022/04/18 11:24:58;;;;;;;4.30;3.30;;;;;;;22.19;34.35;101977.13;5087033;28;20032;-67
2022/04/18 11:27:26;;;;;;;3.80;3.00;;;;;;;22.22;34.33;101970.66;5081385;28;20052;-67
2022/04/18 11:29:53;;;;;;;3.67;3.05;;;;;;;22.25;34.25;101971.16;5087372;28;20031;-67
2022/04/18 11:32:21;;;;;;;3.78;2.95;;;;;;;22.28;34.35;101978.78;5075794;28;20035;-66
2022/04/18 11:34:50;;;;;;;4.63;3.08;;;;;;;22.26;34.11;101969.31;5092037;28;20083;-67
2022/04/18 11:37:23;;;;;;;3.65;2.90;;;;;;;22.26;34.12;101969.31;5087183;28;20031;-67
2022/04/18 11:39:50;;;;;;;4.25;2.80;;;;;;;22.24;34.08;101968.66;5091473;28;20564;-67
2022/04/18 11:42:19;;;;;;;4.03;3.33;;;;;;;22.24;34.04;101968.66;5088399;28;20051;-67
2022/04/18 11:44:46;;;;;;;3.47;2.97;;;;;;;22.24;34.07;101960.69;5080378;28;20082;-67
2022/04/18 11:47:14;;;;;;;4.38;2.97;;;;;;;22.29;34.25;101963.69;5086355;28;20591;-67
2022/04/18 11:49:41;;;;;;;3.85;3.10;;;;;;;22.36;33.98;101958.53;5077733;28;20044;-67
2022/04/18 11:52:17;;;;;;;3.63;2.80;;;;;;;22.35;33.96;101952.41;5090414;28;20024;-67
2022/04/18 11:55:01;;;;;;;3.85;2.70;;;;;;;22.35;34.04;101954.22;5076020;28;20050;-67
2022/04/18 11:57:28;;;;;;;3.83;2.75;;;;;;;22.34;33.93;101955.22;5087209;28;20047;-67
2022/04/18 11:59:55;;;;;;;3.53;2.83;;;;;;;22.31;33.76;101953.75;5079238;28;20027;-68
2022/04/18 12:06:45;;;;;;;3.72;2.83;;;;;;;22.27;34.06;101947.13;5079007;28;20043;-68